sensor_id;sensor_type;location;lat;lon;timestamp;pressure;altitude;pressure_sealevel;temperature;humidity
79118;BME280;68523;51.336;-0.846;2024-03-29T00:00:00;97345.0;;;7.47;92.3
79118;BME280;68523;51.336;-0.846;2024-03-29T00:03:00;97345.0;;;7.55;91.8
79118;BME280;68523;51.336;-0.846;2024-03-29T00:06:00;97355.0;;;7.55;92.0
79118;BME280;68523;51.336;-0.846;2024-03-29T00:09:00;97355.0;;;7.61;91.9
79118;BME280;68523;51.336;-0.846;2024-03-29T00:12:00;97365.0;;;7.62;92.3
79118;BME280;68523;51.336;-0.846;2024-03-29T00:15:00;97365.0;;;7.69;92.4
79118;BME280;68523;51.336;-0.846;2024-03-29T00:18:00;97375.0;;;7.68;93.2
79118;BME280;68523;51.336;-0.846;2024-03-29T00:21:00;97365.0;;;7.88;92.4
79118;BME280;68523;51.336;-0.846;2024-03-29T00:24:00;97365.0;;;7.95;92.5
79118;BME280;68523;51.336;-0.846;2024-03-29T00:27:00;97365.0;;;7.89;93.0
79118;BME280;68523;51.336;-0.846;2024-03-29T00:30:00;97365.0;;;7.88;93.3
79118;BME280;68523;51.336;-0.846;2024-03-29T00:33:00;97365.0;;;7.78;93.6
79118;BME280;68523;51.336;-0.846;2024-03-29T00:36:00;97365.0;;;7.67;93.9
79118;BME280;68523;51.336;-0.846;2024-03-29T00:39:00;97365.0;;;7.63;92.9
79118;BME280;68523;51.336;-0.846;2024-03-29T00:42:00;97365.0;;;7.56;92.8
79118;BME280;68523;51.336;-0.846;2024-03-29T00:45:01;97365.0;;;7.53;92.5
79118;BME280;68523;51.336;-0.846;2024-03-29T00:48:00;97365.0;;;7.44;93.3
79118;BME280;68523;51.336;-0.846;2024-03-29T00:51:00;97365.0;;;7.38;93.3
79118;BME280;68523;51.336;-0.846;2024-03-29T00:54:00;97375.0;;;7.38;92.4
79118;BME280;68523;51.336;-0.846;2024-03-29T00:57:00;97375.0;;;7.38;92.6
79118;BME280;68523;51.336;-0.846;2024-03-29T01:00:00;97375.0;;;7.31;92.5
79118;BME280;68523;51.336;-0.846;2024-03-29T01:03:00;97375.0;;;7.24;93.0
79118;BME280;68523;51.336;-0.846;2024-03-29T01:06:00;97385.0;;;7.21;93.4
79118;BME280;68523;51.336;-0.846;2024-03-29T01:09:00;97385.0;;;7.24;93.5
79118;BME280;68523;51.336;-0.846;2024-03-29T01:12:00;97375.0;;;7.15;93.7
79118;BME280;68523;51.336;-0.846;2024-03-29T01:15:00;97375.0;;;7.07;94.1
79118;BME280;68523;51.336;-0.846;2024-03-29T01:18:00;97375.0;;;6.98;94.5
79118;BME280;68523;51.336;-0.846;2024-03-29T01:21:00;97375.0;;;6.97;95.0
79118;BME280;68523;51.336;-0.846;2024-03-29T01:24:00;97375.0;;;6.95;95.3
79118;BME280;68523;51.336;-0.846;2024-03-29T01:27:00;97385.0;;;6.84;96.0
79118;BME280;68523;51.336;-0.846;2024-03-29T01:30:00;97385.0;;;6.83;96.2
79118;BME280;68523;51.336;-0.846;2024-03-29T01:33:00;97385.0;;;6.92;96.0
79118;BME280;68523;51.336;-0.846;2024-03-29T01:36:00;97385.0;;;6.95;96.1
79118;BME280;68523;51.336;-0.846;2024-03-29T01:39:00;97385.0;;;6.99;96.0
79118;BME280;68523;51.336;-0.846;2024-03-29T01:42:00;97385.0;;;7.09;95.4
79118;BME280;68523;51.336;-0.846;2024-03-29T01:45:00;97385.0;;;7.08;95.6
79118;BME280;68523;51.336;-0.846;2024-03-29T01:48:00;97395.0;;;7.11;95.8
79118;BME280;68523;51.336;-0.846;2024-03-29T01:51:01;97395.0;;;7.04;96.2
79118;BME280;68523;51.336;-0.846;2024-03-29T01:54:00;97395.0;;;7.05;96.5
79118;BME280;68523;51.336;-0.846;2024-03-29T01:57:00;97395.0;;;6.99;96.8
79118;BME280;68523;51.336;-0.846;2024-03-29T02:00:00;97395.0;;;6.98;97.2
79118;BME280;68523;51.336;-0.846;2024-03-29T02:03:00;97395.0;;;6.98;97.5
79118;BME280;68523;51.336;-0.846;2024-03-29T02:06:00;97395.0;;;7.00;97.4
79118;BME280;68523;51.336;-0.846;2024-03-29T02:09:00;97405.0;;;7.13;96.8
79118;BME280;68523;51.336;-0.846;2024-03-29T02:12:00;97405.0;;;7.14;97.0
79118;BME280;68523;51.336;-0.846;2024-03-29T02:15:00;97405.0;;;7.17;96.9
79118;BME280;68523;51.336;-0.846;2024-03-29T02:18:00;97405.0;;;7.16;96.9
79118;BME280;68523;51.336;-0.846;2024-03-29T02:21:00;97405.0;;;7.14;97.1
79118;BME280;68523;51.336;-0.846;2024-03-29T02:24:05;97405.0;;;7.18;97.0
79118;BME280;68523;51.336;-0.846;2024-03-29T02:27:00;97415.0;;;7.16;97.0
79118;BME280;68523;51.336;-0.846;2024-03-29T02:30:00;97405.0;;;7.15;97.2
79118;BME280;68523;51.336;-0.846;2024-03-29T02:33:01;97405.0;;;7.13;97.2
79118;BME280;68523;51.336;-0.846;2024-03-29T02:36:00;97395.0;;;7.05;97.5
79118;BME280;68523;51.336;-0.846;2024-03-29T02:39:00;97405.0;;;7.01;97.8
79118;BME280;68523;51.336;-0.846;2024-03-29T02:42:00;97405.0;;;7.05;97.9
79118;BME280;68523;51.336;-0.846;2024-03-29T02:45:00;97405.0;;;7.05;97.9
79118;BME280;68523;51.336;-0.846;2024-03-29T02:48:00;97405.0;;;7.00;98.0
79118;BME280;68523;51.336;-0.846;2024-03-29T02:51:00;97405.0;;;7.05;98.0
79118;BME280;68523;51.336;-0.846;2024-03-29T02:54:00;97405.0;;;7.00;98.1
79118;BME280;68523;51.336;-0.846;2024-03-29T02:57:00;97415.0;;;6.98;98.2
79118;BME280;68523;51.336;-0.846;2024-03-29T03:00:00;97415.0;;;6.90;98.3
79118;BME280;68523;51.336;-0.846;2024-03-29T03:03:00;97415.0;;;6.90;98.3
79118;BME280;68523;51.336;-0.846;2024-03-29T03:06:00;97415.0;;;6.80;98.3
79118;BME280;68523;51.336;-0.846;2024-03-29T03:09:00;97425.0;;;6.71;98.5
79118;BME280;68523;51.336;-0.846;2024-03-29T03:12:00;97435.0;;;6.79;98.4
79118;BME280;68523;51.336;-0.846;2024-03-29T03:15:01;97435.0;;;6.88;98.3
79118;BME280;68523;51.336;-0.846;2024-03-29T03:18:00;97435.0;;;6.96;98.2
79118;BME280;68523;51.336;-0.846;2024-03-29T03:21:01;97445.0;;;6.99;98.0
79118;BME280;68523;51.336;-0.846;2024-03-29T03:24:00;97435.0;;;7.04;98.0
79118;BME280;68523;51.336;-0.846;2024-03-29T03:27:00;97435.0;;;7.07;98.0
79118;BME280;68523;51.336;-0.846;2024-03-29T03:30:00;97425.0;;;7.10;97.9
79118;BME280;68523;51.336;-0.846;2024-03-29T03:33:00;97435.0;;;7.11;97.9
79118;BME280;68523;51.336;-0.846;2024-03-29T03:36:00;97435.0;;;7.16;97.8
79118;BME280;68523;51.336;-0.846;2024-03-29T03:39:00;97435.0;;;7.13;97.8
79118;BME280;68523;51.336;-0.846;2024-03-29T03:42:00;97445.0;;;7.06;98.1
79118;BME280;68523;51.336;-0.846;2024-03-29T03:45:00;97455.0;;;7.02;98.2
79118;BME280;68523;51.336;-0.846;2024-03-29T03:48:01;97455.0;;;7.12;97.7
79118;BME280;68523;51.336;-0.846;2024-03-29T03:51:00;97455.0;;;7.15;97.5
79118;BME280;68523;51.336;-0.846;2024-03-29T03:54:00;97445.0;;;7.17;97.2
79118;BME280;68523;51.336;-0.846;2024-03-29T03:57:00;97455.0;;;7.21;96.7
79118;BME280;68523;51.336;-0.846;2024-03-29T04:00:00;97455.0;;;7.17;96.9
79118;BME280;68523;51.336;-0.846;2024-03-29T04:03:00;97455.0;;;7.26;96.5
79118;BME280;68523;51.336;-0.846;2024-03-29T04:06:02;97445.0;;;7.20;96.5
79118;BME280;68523;51.336;-0.846;2024-03-29T04:09:00;97445.0;;;7.19;96.4
79118;BME280;68523;51.336;-0.846;2024-03-29T04:12:00;97445.0;;;7.12;96.3
79118;BME280;68523;51.336;-0.846;2024-03-29T04:15:00;97455.0;;;7.08;96.5
79118;BME280;68523;51.336;-0.846;2024-03-29T04:18:00;97455.0;;;7.06;96.6
79118;BME280;68523;51.336;-0.846;2024-03-29T04:21:01;97455.0;;;7.06;96.6
79118;BME280;68523;51.336;-0.846;2024-03-29T04:24:00;97445.0;;;7.01;96.8
79118;BME280;68523;51.336;-0.846;2024-03-29T04:27:00;97445.0;;;7.01;96.6
79118;BME280;68523;51.336;-0.846;2024-03-29T04:30:00;97455.0;;;6.97;96.7
79118;BME280;68523;51.336;-0.846;2024-03-29T04:33:00;97455.0;;;6.91;97.0
79118;BME280;68523;51.336;-0.846;2024-03-29T04:36:03;97455.0;;;6.90;97.1
79118;BME280;68523;51.336;-0.846;2024-03-29T04:39:00;97455.0;;;6.85;97.2
79118;BME280;68523;51.336;-0.846;2024-03-29T04:42:00;97455.0;;;6.92;97.0
79118;BME280;68523;51.336;-0.846;2024-03-29T04:45:00;97455.0;;;6.95;96.9
79118;BME280;68523;51.336;-0.846;2024-03-29T04:48:00;97455.0;;;6.96;97.1
79118;BME280;68523;51.336;-0.846;2024-03-29T04:51:00;97455.0;;;6.93;97.3
79118;BME280;68523;51.336;-0.846;2024-03-29T04:54:00;97455.0;;;6.92;97.3
79118;BME280;68523;51.336;-0.846;2024-03-29T04:57:01;97455.0;;;6.87;97.3
79118;BME280;68523;51.336;-0.846;2024-03-29T05:00:00;97455.0;;;6.93;97.3
79118;BME280;68523;51.336;-0.846;2024-03-29T05:03:00;97455.0;;;6.97;97.1
79118;BME280;68523;51.336;-0.846;2024-03-29T05:06:00;97455.0;;;6.92;97.3
79118;BME280;68523;51.336;-0.846;2024-03-29T05:09:00;97465.0;;;6.86;97.6
79118;BME280;68523;51.336;-0.846;2024-03-29T05:12:00;97465.0;;;6.94;97.5
79118;BME280;68523;51.336;-0.846;2024-03-29T05:15:00;97465.0;;;6.90;97.6
79118;BME280;68523;51.336;-0.846;2024-03-29T05:18:00;97465.0;;;6.89;97.8
79118;BME280;68523;51.336;-0.846;2024-03-29T05:21:00;97465.0;;;6.93;97.9
79118;BME280;68523;51.336;-0.846;2024-03-29T05:24:00;97465.0;;;6.95;98.0
79118;BME280;68523;51.336;-0.846;2024-03-29T05:27:00;97475.0;;;7.04;98.1
79118;BME280;68523;51.336;-0.846;2024-03-29T05:30:00;97465.0;;;7.09;98.2
79118;BME280;68523;51.336;-0.846;2024-03-29T05:33:00;97465.0;;;7.11;98.3
79118;BME280;68523;51.336;-0.846;2024-03-29T05:36:00;97475.0;;;7.13;98.2
79118;BME280;68523;51.336;-0.846;2024-03-29T05:39:00;97475.0;;;7.17;98.1
79118;BME280;68523;51.336;-0.846;2024-03-29T05:42:00;97475.0;;;7.20;98.0
79118;BME280;68523;51.336;-0.846;2024-03-29T05:45:00;97475.0;;;7.24;97.8
79118;BME280;68523;51.336;-0.846;2024-03-29T05:48:00;97475.0;;;7.30;97.4
79118;BME280;68523;51.336;-0.846;2024-03-29T05:51:00;97485.0;;;7.27;97.8
79118;BME280;68523;51.336;-0.846;2024-03-29T05:54:00;97485.0;;;7.23;97.7
79118;BME280;68523;51.336;-0.846;2024-03-29T05:57:00;97485.0;;;7.28;97.6
79118;BME280;68523;51.336;-0.846;2024-03-29T06:00:01;97485.0;;;7.25;97.6
79118;BME280;68523;51.336;-0.846;2024-03-29T06:03:00;97485.0;;;7.37;96.8
79118;BME280;68523;51.336;-0.846;2024-03-29T06:06:00;97475.0;;;7.32;97.1
79118;BME280;68523;51.336;-0.846;2024-03-29T06:09:00;97475.0;;;7.29;97.0
79118;BME280;68523;51.336;-0.846;2024-03-29T06:12:00;97475.0;;;7.27;96.9
79118;BME280;68523;51.336;-0.846;2024-03-29T06:15:00;97475.0;;;7.29;96.8
79118;BME280;68523;51.336;-0.846;2024-03-29T06:18:00;97475.0;;;7.24;96.7
79118;BME280;68523;51.336;-0.846;2024-03-29T06:21:00;97485.0;;;7.27;96.6
79118;BME280;68523;51.336;-0.846;2024-03-29T06:24:00;97485.0;;;7.34;96.3
79118;BME280;68523;51.336;-0.846;2024-03-29T06:27:00;97485.0;;;7.47;96.1
79118;BME280;68523;51.336;-0.846;2024-03-29T06:30:00;97495.0;;;7.63;95.7
79118;BME280;68523;51.336;-0.846;2024-03-29T06:33:00;97495.0;;;7.66;95.3
79118;BME280;68523;51.336;-0.846;2024-03-29T06:36:00;97485.0;;;7.66;95.6
79118;BME280;68523;51.336;-0.846;2024-03-29T06:39:00;97495.0;;;7.63;95.5
79118;BME280;68523;51.336;-0.846;2024-03-29T06:42:00;97495.0;;;7.65;94.8
79118;BME280;68523;51.336;-0.846;2024-03-29T06:45:00;97495.0;;;7.71;95.4
79118;BME280;68523;51.336;-0.846;2024-03-29T06:48:00;97495.0;;;7.77;94.9
79118;BME280;68523;51.336;-0.846;2024-03-29T06:51:00;97495.0;;;7.94;94.5
79118;BME280;68523;51.336;-0.846;2024-03-29T06:54:00;97505.0;;;7.85;94.4
79118;BME280;68523;51.336;-0.846;2024-03-29T06:57:00;97505.0;;;7.77;94.7
79118;BME280;68523;51.336;-0.846;2024-03-29T07:00:00;97515.0;;;7.75;94.3
79118;BME280;68523;51.336;-0.846;2024-03-29T07:03:00;97505.0;;;7.77;94.5
79118;BME280;68523;51.336;-0.846;2024-03-29T07:06:00;97505.0;;;7.83;94.5
79118;BME280;68523;51.336;-0.846;2024-03-29T07:09:00;97505.0;;;7.87;94.6
79118;BME280;68523;51.336;-0.846;2024-03-29T07:12:00;97505.0;;;7.89;94.1
79118;BME280;68523;51.336;-0.846;2024-03-29T07:15:00;97505.0;;;7.98;94.2
79118;BME280;68523;51.336;-0.846;2024-03-29T07:18:00;97505.0;;;8.10;94.1
79118;BME280;68523;51.336;-0.846;2024-03-29T07:21:00;97505.0;;;8.18;93.6
79118;BME280;68523;51.336;-0.846;2024-03-29T07:24:00;97505.0;;;8.24;93.6
79118;BME280;68523;51.336;-0.846;2024-03-29T07:27:00;97505.0;;;8.16;94.0
79118;BME280;68523;51.336;-0.846;2024-03-29T07:30:00;97505.0;;;8.17;93.5
79118;BME280;68523;51.336;-0.846;2024-03-29T07:33:00;97515.0;;;8.22;93.6
79118;BME280;68523;51.336;-0.846;2024-03-29T07:36:00;97515.0;;;8.24;93.6
79118;BME280;68523;51.336;-0.846;2024-03-29T07:39:01;97525.0;;;8.17;94.8
79118;BME280;68523;51.336;-0.846;2024-03-29T07:42:00;97525.0;;;8.18;95.9
79118;BME280;68523;51.336;-0.846;2024-03-29T07:45:00;97525.0;;;8.04;96.6
79118;BME280;68523;51.336;-0.846;2024-03-29T07:48:00;97525.0;;;7.97;96.9
79118;BME280;68523;51.336;-0.846;2024-03-29T07:51:01;97535.0;;;8.01;96.5
79118;BME280;68523;51.336;-0.846;2024-03-29T07:54:00;97535.0;;;8.06;96.6
79118;BME280;68523;51.336;-0.846;2024-03-29T07:57:00;97535.0;;;8.18;96.1
79118;BME280;68523;51.336;-0.846;2024-03-29T08:00:00;97545.0;;;8.20;95.9
79118;BME280;68523;51.336;-0.846;2024-03-29T08:03:00;97545.0;;;8.36;96.0
79118;BME280;68523;51.336;-0.846;2024-03-29T08:06:01;97555.0;;;8.14;96.3
79118;BME280;68523;51.336;-0.846;2024-03-29T08:09:00;97555.0;;;8.16;97.5
79118;BME280;68523;51.336;-0.846;2024-03-29T08:12:00;97555.0;;;8.40;97.3
79118;BME280;68523;51.336;-0.846;2024-03-29T08:15:00;97565.0;;;8.35;96.6
79118;BME280;68523;51.336;-0.846;2024-03-29T08:18:00;97565.0;;;8.30;97.9
79118;BME280;68523;51.336;-0.846;2024-03-29T08:21:00;97565.0;;;8.13;98.2
79118;BME280;68523;51.336;-0.846;2024-03-29T08:24:00;97565.0;;;8.10;98.3
79118;BME280;68523;51.336;-0.846;2024-03-29T08:27:00;97575.0;;;8.18;97.8
79118;BME280;68523;51.336;-0.846;2024-03-29T08:30:00;97575.0;;;8.27;98.1
79118;BME280;68523;51.336;-0.846;2024-03-29T08:33:01;97575.0;;;8.31;97.9
79118;BME280;68523;51.336;-0.846;2024-03-29T08:36:00;97575.0;;;8.45;98.1
79118;BME280;68523;51.336;-0.846;2024-03-29T08:39:00;97585.0;;;8.85;97.1
79118;BME280;68523;51.336;-0.846;2024-03-29T08:42:00;97585.0;;;9.20;96.8
79118;BME280;68523;51.336;-0.846;2024-03-29T08:45:00;97585.0;;;9.08;96.5
79118;BME280;68523;51.336;-0.846;2024-03-29T08:48:00;97585.0;;;8.74;96.8
79118;BME280;68523;51.336;-0.846;2024-03-29T08:51:00;97585.0;;;8.68;97.4
79118;BME280;68523;51.336;-0.846;2024-03-29T08:54:00;97595.0;;;8.54;96.7
79118;BME280;68523;51.336;-0.846;2024-03-29T08:57:00;97605.0;;;8.59;97.3
79118;BME280;68523;51.336;-0.846;2024-03-29T09:00:00;97605.0;;;8.63;97.5
79118;BME280;68523;51.336;-0.846;2024-03-29T09:03:00;97615.0;;;8.64;97.2
79118;BME280;68523;51.336;-0.846;2024-03-29T09:06:01;97625.0;;;8.75;97.3
79118;BME280;68523;51.336;-0.846;2024-03-29T09:09:00;97625.0;;;8.81;97.0
79118;BME280;68523;51.336;-0.846;2024-03-29T09:12:00;97615.0;;;8.93;96.5
79118;BME280;68523;51.336;-0.846;2024-03-29T09:15:00;97615.0;;;9.06;95.7
79118;BME280;68523;51.336;-0.846;2024-03-29T09:18:00;97625.0;;;9.18;95.9
79118;BME280;68523;51.336;-0.846;2024-03-29T09:21:00;97625.0;;;9.18;95.7
79118;BME280;68523;51.336;-0.846;2024-03-29T09:24:00;97635.0;;;9.25;95.5
79118;BME280;68523;51.336;-0.846;2024-03-29T09:27:00;97635.0;;;9.34;95.6
79118;BME280;68523;51.336;-0.846;2024-03-29T09:30:00;97635.0;;;9.59;94.1
79118;BME280;68523;51.336;-0.846;2024-03-29T09:33:00;97645.0;;;9.99;93.0
79118;BME280;68523;51.336;-0.846;2024-03-29T09:36:00;97645.0;;;10.07;93.7
79118;BME280;68523;51.336;-0.846;2024-03-29T09:39:00;97645.0;;;9.66;94.5
79118;BME280;68523;51.336;-0.846;2024-03-29T09:42:02;97645.0;;;9.71;92.8
79118;BME280;68523;51.336;-0.846;2024-03-29T09:45:02;97645.0;;;10.59;89.6
79118;BME280;68523;51.336;-0.846;2024-03-29T09:48:01;97645.0;;;10.63;89.7
79118;BME280;68523;51.336;-0.846;2024-03-29T09:51:00;97645.0;;;10.96;88.7
79118;BME280;68523;51.336;-0.846;2024-03-29T09:54:00;97645.0;;;11.01;89.1
79118;BME280;68523;51.336;-0.846;2024-03-29T09:57:00;97645.0;;;11.16;88.1
79118;BME280;68523;51.336;-0.846;2024-03-29T10:00:00;97645.0;;;10.86;88.3
79118;BME280;68523;51.336;-0.846;2024-03-29T10:03:01;97645.0;;;10.76;89.3
79118;BME280;68523;51.336;-0.846;2024-03-29T10:06:01;97645.0;;;10.65;88.8
79118;BME280;68523;51.336;-0.846;2024-03-29T10:09:00;97655.0;;;10.58;88.7
79118;BME280;68523;51.336;-0.846;2024-03-29T10:12:00;97655.0;;;10.41;91.3
79118;BME280;68523;51.336;-0.846;2024-03-29T10:15:00;97665.0;;;10.29;93.1
79118;BME280;68523;51.336;-0.846;2024-03-29T10:18:00;97655.0;;;10.09;93.7
79118;BME280;68523;51.336;-0.846;2024-03-29T10:21:01;97665.0;;;9.88;94.8
79118;BME280;68523;51.336;-0.846;2024-03-29T10:24:11;97665.0;;;9.90;94.6
79118;BME280;68523;51.336;-0.846;2024-03-29T10:27:00;97675.0;;;10.36;93.1
79118;BME280;68523;51.336;-0.846;2024-03-29T10:30:00;97675.0;;;10.84;91.0
79118;BME280;68523;51.336;-0.846;2024-03-29T10:33:00;97665.0;;;10.87;88.8
79118;BME280;68523;51.336;-0.846;2024-03-29T10:36:01;97665.0;;;11.32;87.7
79118;BME280;68523;51.336;-0.846;2024-03-29T10:39:02;97675.0;;;11.30;87.6
79118;BME280;68523;51.336;-0.846;2024-03-29T10:42:01;97675.0;;;10.98;86.6
79118;BME280;68523;51.336;-0.846;2024-03-29T10:45:01;97685.0;;;11.02;86.6
79118;BME280;68523;51.336;-0.846;2024-03-29T10:48:01;97685.0;;;11.26;87.4
79118;BME280;68523;51.336;-0.846;2024-03-29T10:51:01;97675.0;;;11.25;86.6
79118;BME280;68523;51.336;-0.846;2024-03-29T10:54:01;97675.0;;;11.13;86.5
79118;BME280;68523;51.336;-0.846;2024-03-29T10:57:05;97685.0;;;11.04;86.2
79118;BME280;68523;51.336;-0.846;2024-03-29T11:00:03;97685.0;;;11.01;86.0
79118;BME280;68523;51.336;-0.846;2024-03-29T11:03:08;97685.0;;;11.90;82.4
79118;BME280;68523;51.336;-0.846;2024-03-29T11:06:02;97685.0;;;11.92;83.5
79118;BME280;68523;51.336;-0.846;2024-03-29T11:09:00;97685.0;;;11.83;83.9
79118;BME280;68523;51.336;-0.846;2024-03-29T11:12:01;97685.0;;;11.79;82.0
79118;BME280;68523;51.336;-0.846;2024-03-29T11:15:03;97675.0;;;13.28;76.8
79118;BME280;68523;51.336;-0.846;2024-03-29T11:18:00;97685.0;;;12.96;80.0
79118;BME280;68523;51.336;-0.846;2024-03-29T11:21:00;97685.0;;;13.92;78.9
79118;BME280;68523;51.336;-0.846;2024-03-29T11:24:03;97695.0;;;13.80;78.5
79118;BME280;68523;51.336;-0.846;2024-03-29T11:27:07;97685.0;;;13.19;78.9
79118;BME280;68523;51.336;-0.846;2024-03-29T11:30:02;97695.0;;;12.76;78.9
79118;BME280;68523;51.336;-0.846;2024-03-29T11:33:00;97695.0;;;13.05;78.5
79118;BME280;68523;51.336;-0.846;2024-03-29T11:36:08;97685.0;;;12.95;79.9
79118;BME280;68523;51.336;-0.846;2024-03-29T11:39:00;97685.0;;;12.96;80.6
79118;BME280;68523;51.336;-0.846;2024-03-29T11:42:01;97685.0;;;13.81;76.2
79118;BME280;68523;51.336;-0.846;2024-03-29T11:45:00;97695.0;;;13.50;78.0
79118;BME280;68523;51.336;-0.846;2024-03-29T11:48:04;97705.0;;;12.53;79.4
79118;BME280;68523;51.336;-0.846;2024-03-29T11:51:01;97705.0;;;12.65;79.2
79118;BME280;68523;51.336;-0.846;2024-03-29T11:54:01;97715.0;;;11.69;80.6
79118;BME280;68523;51.336;-0.846;2024-03-29T11:57:00;97715.0;;;11.64;80.9
79118;BME280;68523;51.336;-0.846;2024-03-29T12:00:00;97725.0;;;11.92;81.7
79118;BME280;68523;51.336;-0.846;2024-03-29T12:03:01;97725.0;;;11.71;81.5
79118;BME280;68523;51.336;-0.846;2024-03-29T12:06:00;97725.0;;;11.43;81.4
79118;BME280;68523;51.336;-0.846;2024-03-29T12:09:00;97725.0;;;11.57;81.4
79118;BME280;68523;51.336;-0.846;2024-03-29T12:12:00;97725.0;;;11.79;81.3
79118;BME280;68523;51.336;-0.846;2024-03-29T12:15:01;97725.0;;;12.00;80.3
79118;BME280;68523;51.336;-0.846;2024-03-29T12:18:01;97715.0;;;13.88;75.8
79118;BME280;68523;51.336;-0.846;2024-03-29T12:21:00;97715.0;;;14.24;74.5
79118;BME280;68523;51.336;-0.846;2024-03-29T12:24:00;97715.0;;;13.39;74.4
79118;BME280;68523;51.336;-0.846;2024-03-29T12:27:00;97715.0;;;12.24;78.5
79118;BME280;68523;51.336;-0.846;2024-03-29T12:30:00;97735.0;;;11.93;78.8
79118;BME280;68523;51.336;-0.846;2024-03-29T12:33:01;97725.0;;;12.35;76.9
79118;BME280;68523;51.336;-0.846;2024-03-29T12:36:00;97725.0;;;12.88;76.2
79118;BME280;68523;51.336;-0.846;2024-03-29T12:39:00;97735.0;;;13.75;72.5
79118;BME280;68523;51.336;-0.846;2024-03-29T12:42:00;97735.0;;;13.71;72.5
79118;BME280;68523;51.336;-0.846;2024-03-29T12:45:00;97735.0;;;13.41;73.6
79118;BME280;68523;51.336;-0.846;2024-03-29T12:48:00;97735.0;;;13.43;74.6
79118;BME280;68523;51.336;-0.846;2024-03-29T12:51:00;97735.0;;;12.65;75.2
79118;BME280;68523;51.336;-0.846;2024-03-29T12:54:01;97745.0;;;12.94;73.7
79118;BME280;68523;51.336;-0.846;2024-03-29T12:57:00;97745.0;;;14.12;70.3
79118;BME280;68523;51.336;-0.846;2024-03-29T13:00:00;97745.0;;;12.53;73.5
79118;BME280;68523;51.336;-0.846;2024-03-29T13:03:00;97745.0;;;13.77;72.4
79118;BME280;68523;51.336;-0.846;2024-03-29T13:06:00;97745.0;;;13.68;71.9
79118;BME280;68523;51.336;-0.846;2024-03-29T13:09:00;97745.0;;;14.59;68.5
79118;BME280;68523;51.336;-0.846;2024-03-29T13:12:00;97745.0;;;14.32;68.2
79118;BME280;68523;51.336;-0.846;2024-03-29T13:15:02;97755.0;;;13.38;72.7
79118;BME280;68523;51.336;-0.846;2024-03-29T13:18:00;97755.0;;;13.34;71.4
79118;BME280;68523;51.336;-0.846;2024-03-29T13:21:00;97765.0;;;13.55;70.4
79118;BME280;68523;51.336;-0.846;2024-03-29T13:24:00;97755.0;;;14.23;70.5
79118;BME280;68523;51.336;-0.846;2024-03-29T13:27:00;97765.0;;;15.03;68.0
79118;BME280;68523;51.336;-0.846;2024-03-29T13:30:00;97765.0;;;13.89;68.6
79118;BME280;68523;51.336;-0.846;2024-03-29T13:33:00;97765.0;;;14.79;65.7
79118;BME280;68523;51.336;-0.846;2024-03-29T13:36:00;97765.0;;;14.14;64.5
79118;BME280;68523;51.336;-0.846;2024-03-29T13:39:00;97775.0;;;14.59;62.2
79118;BME280;68523;51.336;-0.846;2024-03-29T13:42:00;97765.0;;;14.01;61.0
79118;BME280;68523;51.336;-0.846;2024-03-29T13:45:00;97765.0;;;14.31;60.6
79118;BME280;68523;51.336;-0.846;2024-03-29T13:48:00;97765.0;;;14.75;61.0
79118;BME280;68523;51.336;-0.846;2024-03-29T13:51:00;97775.0;;;15.39;59.2
79118;BME280;68523;51.336;-0.846;2024-03-29T13:54:00;97785.0;;;14.88;60.8
79118;BME280;68523;51.336;-0.846;2024-03-29T13:57:00;97785.0;;;14.52;61.8
79118;BME280;68523;51.336;-0.846;2024-03-29T14:00:00;97785.0;;;14.70;60.9
79118;BME280;68523;51.336;-0.846;2024-03-29T14:03:00;97795.0;;;13.77;65.0
79118;BME280;68523;51.336;-0.846;2024-03-29T14:06:00;97795.0;;;13.56;66.1
79118;BME280;68523;51.336;-0.846;2024-03-29T14:09:00;97785.0;;;13.29;66.5
79118;BME280;68523;51.336;-0.846;2024-03-29T14:12:00;97795.0;;;13.04;66.6
79118;BME280;68523;51.336;-0.846;2024-03-29T14:15:00;97785.0;;;13.73;63.5
79118;BME280;68523;51.336;-0.846;2024-03-29T14:18:00;97785.0;;;13.49;66.2
79118;BME280;68523;51.336;-0.846;2024-03-29T14:21:00;97795.0;;;13.25;68.4
79118;BME280;68523;51.336;-0.846;2024-03-29T14:24:00;97795.0;;;13.38;67.0
79118;BME280;68523;51.336;-0.846;2024-03-29T14:27:00;97795.0;;;14.06;65.1
79118;BME280;68523;51.336;-0.846;2024-03-29T14:30:00;97795.0;;;14.41;64.4
79118;BME280;68523;51.336;-0.846;2024-03-29T14:33:00;97795.0;;;14.72;64.3
79118;BME280;68523;51.336;-0.846;2024-03-29T14:36:00;97805.0;;;13.94;66.0
79118;BME280;68523;51.336;-0.846;2024-03-29T14:39:00;97805.0;;;14.64;62.8
79118;BME280;68523;51.336;-0.846;2024-03-29T14:42:00;97805.0;;;15.07;61.7
79118;BME280;68523;51.336;-0.846;2024-03-29T14:45:00;97815.0;;;15.07;63.2
79118;BME280;68523;51.336;-0.846;2024-03-29T14:48:00;97815.0;;;14.49;65.3
79118;BME280;68523;51.336;-0.846;2024-03-29T14:51:00;97825.0;;;13.33;67.7
79118;BME280;68523;51.336;-0.846;2024-03-29T14:54:00;97825.0;;;12.89;68.3
79118;BME280;68523;51.336;-0.846;2024-03-29T14:57:00;97845.0;;;12.81;68.2
79118;BME280;68523;51.336;-0.846;2024-03-29T15:00:00;97845.0;;;12.60;68.1
79118;BME280;68523;51.336;-0.846;2024-03-29T15:03:00;97845.0;;;12.53;67.8
79118;BME280;68523;51.336;-0.846;2024-03-29T15:06:00;97835.0;;;12.56;67.6
79118;BME280;68523;51.336;-0.846;2024-03-29T15:09:00;97845.0;;;12.79;68.5
79118;BME280;68523;51.336;-0.846;2024-03-29T15:12:00;97845.0;;;12.48;68.6
79118;BME280;68523;51.336;-0.846;2024-03-29T15:15:00;97845.0;;;12.60;68.4
79118;BME280;68523;51.336;-0.846;2024-03-29T15:18:00;97845.0;;;12.70;68.3
79118;BME280;68523;51.336;-0.846;2024-03-29T15:21:01;97845.0;;;13.53;66.3
79118;BME280;68523;51.336;-0.846;2024-03-29T15:24:00;97855.0;;;12.50;67.1
79118;BME280;68523;51.336;-0.846;2024-03-29T15:27:00;97855.0;;;12.39;68.5
79118;BME280;68523;51.336;-0.846;2024-03-29T15:30:00;97865.0;;;12.61;68.5
79118;BME280;68523;51.336;-0.846;2024-03-29T15:33:00;97865.0;;;13.19;66.6
79118;BME280;68523;51.336;-0.846;2024-03-29T15:36:00;97865.0;;;12.48;68.4
79118;BME280;68523;51.336;-0.846;2024-03-29T15:39:01;97865.0;;;13.64;64.3
79118;BME280;68523;51.336;-0.846;2024-03-29T15:42:00;97865.0;;;14.40;63.4
79118;BME280;68523;51.336;-0.846;2024-03-29T15:45:00;97865.0;;;14.10;64.4
79118;BME280;68523;51.336;-0.846;2024-03-29T15:48:00;97875.0;;;13.72;66.2
79118;BME280;68523;51.336;-0.846;2024-03-29T15:51:00;97885.0;;;13.72;64.9
79118;BME280;68523;51.336;-0.846;2024-03-29T15:54:00;97885.0;;;14.34;64.0
79118;BME280;68523;51.336;-0.846;2024-03-29T15:57:00;97885.0;;;13.88;65.3
79118;BME280;68523;51.336;-0.846;2024-03-29T16:00:01;97885.0;;;13.28;67.6
79118;BME280;68523;51.336;-0.846;2024-03-29T16:03:00;97885.0;;;14.30;63.7
79118;BME280;68523;51.336;-0.846;2024-03-29T16:06:00;97875.0;;;15.41;62.3
79118;BME280;68523;51.336;-0.846;2024-03-29T16:09:00;97875.0;;;15.05;61.6
79118;BME280;68523;51.336;-0.846;2024-03-29T16:12:00;97875.0;;;13.76;64.8